sensor_id;sensor_type;location;lat;lon;timestamp;temperature;humidity
49413;DHT22;35493;50.276;9.372;2022-07-29T00:01:33;21.40;48.30
49413;DHT22;35493;50.276;9.372;2022-07-29T00:04:00;21.50;48.20
49413;DHT22;35493;50.276;9.372;2022-07-29T00:06:29;21.40;48.30
49413;DHT22;35493;50.276;9.372;2022-07-29T00:08:56;21.40;48.30
49413;DHT22;35493;50.276;9.372;2022-07-29T00:11:23;21.40;48.40
49413;DHT22;35493;50.276;9.372;2022-07-29T00:13:50;21.30;48.30
49413;DHT22;35493;50.276;9.372;2022-07-29T00:16:17;21.30;48.30
49413;DHT22;35493;50.276;9.372;2022-07-29T00:18:44;21.30;48.20
49413;DHT22;35493;50.276;9.372;2022-07-29T00:21:11;21.20;48.30
49413;DHT22;35493;50.276;9.372;2022-07-29T00:23:40;21.30;48.10
49413;DHT22;35493;50.276;9.372;2022-07-29T00:26:07;21.30;48.10
49413;DHT22;35493;50.276;9.372;2022-07-29T00:28:34;21.20;48.20
49413;DHT22;35493;50.276;9.372;2022-07-29T00:31:01;21.20;48.20
49413;DHT22;35493;50.276;9.372;2022-07-29T00:33:28;21.20;48.10
49413;DHT22;35493;50.276;9.372;2022-07-29T00:35:55;21.20;48.10
49413;DHT22;35493;50.276;9.372;2022-07-29T00:38:21;21.20;48.20
49413;DHT22;35493;50.276;9.372;2022-07-29T00:40:49;21.20;48.20
49413;DHT22;35493;50.276;9.372;2022-07-29T00:43:17;21.20;48.30
49413;DHT22;35493;50.276;9.372;2022-07-29T00:45:44;21.20;48.30
49413;DHT22;35493;50.276;9.372;2022-07-29T00:48:11;21.20;48.30
49413;DHT22;35493;50.276;9.372;2022-07-29T00:50:38;21.20;48.40
49413;DHT22;35493;50.276;9.372;2022-07-29T00:53:08;21.10;48.50
49413;DHT22;35493;50.276;9.372;2022-07-29T00:55:35;21.10;48.30
49413;DHT22;35493;50.276;9.372;2022-07-29T00:58:04;21.10;48.30
49413;DHT22;35493;50.276;9.372;2022-07-29T01:00:31;21.10;48.20
49413;DHT22;35493;50.276;9.372;2022-07-29T01:02:58;21.10;48.30
49413;DHT22;35493;50.276;9.372;2022-07-29T01:05:28;21.10;48.50
49413;DHT22;35493;50.276;9.372;2022-07-29T01:07:55;21.10;48.90
49413;DHT22;35493;50.276;9.372;2022-07-29T01:10:23;21.10;49.10
49413;DHT22;35493;50.276;9.372;2022-07-29T01:12:52;21.10;49.40
49413;DHT22;35493;50.276;9.372;2022-07-29T01:15:21;21.10;49.60
49413;DHT22;35493;50.276;9.372;2022-07-29T01:17:54;21.00;49.50
49413;DHT22;35493;50.276;9.372;2022-07-29T01:20:26;21.00;49.80
49413;DHT22;35493;50.276;9.372;2022-07-29T01:26:44;21.00;50.30
49413;DHT22;35493;50.276;9.372;2022-07-29T01:29:16;20.90;50.30
49413;DHT22;35493;50.276;9.372;2022-07-29T01:31:47;20.90;50.40
49413;DHT22;35493;50.276;9.372;2022-07-29T01:34:21;20.90;50.50
49413;DHT22;35493;50.276;9.372;2022-07-29T01:36:55;20.90;50.50
49413;DHT22;35493;50.276;9.372;2022-07-29T01:39:27;20.90;50.50
49413;DHT22;35493;50.276;9.372;2022-07-29T01:42:01;20.90;50.50
49413;DHT22;35493;50.276;9.372;2022-07-29T01:44:35;20.90;50.60
49413;DHT22;35493;50.276;9.372;2022-07-29T01:47:08;20.90;50.70
49413;DHT22;35493;50.276;9.372;2022-07-29T01:49:41;21.00;50.60
49413;DHT22;35493;50.276;9.372;2022-07-29T01:52:15;20.90;50.50
49413;DHT22;35493;50.276;9.372;2022-07-29T01:54:50;20.90;50.40
49413;DHT22;35493;50.276;9.372;2022-07-29T01:57:21;20.90;50.40
49413;DHT22;35493;50.276;9.372;2022-07-29T01:59:51;20.90;50.50
49413;DHT22;35493;50.276;9.372;2022-07-29T02:02:20;20.80;50.60
49413;DHT22;35493;50.276;9.372;2022-07-29T02:04:49;20.80;50.70
49413;DHT22;35493;50.276;9.372;2022-07-29T02:07:19;20.80;50.80
49413;DHT22;35493;50.276;9.372;2022-07-29T02:09:49;20.80;50.70
49413;DHT22;35493;50.276;9.372;2022-07-29T02:12:18;20.80;50.70
49413;DHT22;35493;50.276;9.372;2022-07-29T02:14:48;20.80;50.70
49413;DHT22;35493;50.276;9.372;2022-07-29T02:17:18;20.80;50.60
49413;DHT22;35493;50.276;9.372;2022-07-29T02:19:47;20.80;50.80
49413;DHT22;35493;50.276;9.372;2022-07-29T02:22:16;20.80;50.70
49413;DHT22;35493;50.276;9.372;2022-07-29T02:24:45;20.80;50.70
49413;DHT22;35493;50.276;9.372;2022-07-29T02:27:13;20.80;50.90
49413;DHT22;35493;50.276;9.372;2022-07-29T02:29:41;20.80;51.10
49413;DHT22;35493;50.276;9.372;2022-07-29T02:32:10;20.80;51.40
49413;DHT22;35493;50.276;9.372;2022-07-29T02:34:39;20.70;51.70
49413;DHT22;35493;50.276;9.372;2022-07-29T02:37:08;20.70;51.90
49413;DHT22;35493;50.276;9.372;2022-07-29T02:39:36;20.70;52.30
49413;DHT22;35493;50.276;9.372;2022-07-29T02:42:07;20.60;52.60
49413;DHT22;35493;50.276;9.372;2022-07-29T02:44:34;20.60;53.10
49413;DHT22;35493;50.276;9.372;2022-07-29T02:47:07;20.60;53.50
49413;DHT22;35493;50.276;9.372;2022-07-29T02:49:41;20.60;53.80
49413;DHT22;35493;50.276;9.372;2022-07-29T02:52:14;20.60;53.70
49413;DHT22;35493;50.276;9.372;2022-07-29T02:54:46;20.60;53.90
49413;DHT22;35493;50.276;9.372;2022-07-29T02:57:21;20.50;54.50
49413;DHT22;35493;50.276;9.372;2022-07-29T02:59:51;20.50;54.70
49413;DHT22;35493;50.276;9.372;2022-07-29T03:02:20;20.50;55.10
49413;DHT22;35493;50.276;9.372;2022-07-29T03:04:50;20.50;55.10
49413;DHT22;35493;50.276;9.372;2022-07-29T03:07:18;20.50;55.10
49413;DHT22;35493;50.276;9.372;2022-07-29T03:09:46;20.40;55.30
49413;DHT22;35493;50.276;9.372;2022-07-29T03:12:14;20.50;55.30
49413;DHT22;35493;50.276;9.372;2022-07-29T03:14:42;20.50;55.70
49413;DHT22;35493;50.276;9.372;2022-07-29T03:17:10;20.50;55.70
49413;DHT22;35493;50.276;9.372;2022-07-29T03:19:37;20.50;55.90
49413;DHT22;35493;50.276;9.372;2022-07-29T03:22:06;20.40;56.00
49413;DHT22;35493;50.276;9.372;2022-07-29T03:24:33;20.40;56.00
49413;DHT22;35493;50.276;9.372;2022-07-29T03:27:02;20.40;55.80
49413;DHT22;35493;50.276;9.372;2022-07-29T03:29:29;20.30;55.90
49413;DHT22;35493;50.276;9.372;2022-07-29T03:31:57;20.40;55.90
49413;DHT22;35493;50.276;9.372;2022-07-29T03:34:24;20.30;56.10
49413;DHT22;35493;50.276;9.372;2022-07-29T03:36:51;20.30;56.10
49413;DHT22;35493;50.276;9.372;2022-07-29T03:39:22;20.30;55.90
49413;DHT22;35493;50.276;9.372;2022-07-29T03:41:53;20.20;56.00
49413;DHT22;35493;50.276;9.372;2022-07-29T03:44:21;20.20;56.00
49413;DHT22;35493;50.276;9.372;2022-07-29T03:46:50;20.20;56.30
49413;DHT22;35493;50.276;9.372;2022-07-29T03:49:20;20.10;56.30
49413;DHT22;35493;50.276;9.372;2022-07-29T03:51:49;20.10;56.00
49413;DHT22;35493;50.276;9.372;2022-07-29T03:54:16;20.10;55.50
49413;DHT22;35493;50.276;9.372;2022-07-29T03:56:46;20.10;55.40
49413;DHT22;35493;50.276;9.372;2022-07-29T03:59:16;20.10;55.50
49413;DHT22;35493;50.276;9.372;2022-07-29T04:01:46;20.00;55.60
49413;DHT22;35493;50.276;9.372;2022-07-29T04:04:13;20.00;55.60
49413;DHT22;35493;50.276;9.372;2022-07-29T04:06:40;19.90;55.60
49413;DHT22;35493;50.276;9.372;2022-07-29T04:09:08;20.00;55.10
49413;DHT22;35493;50.276;9.372;2022-07-29T04:11:36;20.00;54.90
49413;DHT22;35493;50.276;9.372;2022-07-29T04:14:06;20.00;54.90
49413;DHT22;35493;50.276;9.372;2022-07-29T04:16:33;20.00;54.80
49413;DHT22;35493;50.276;9.372;2022-07-29T04:19:00;20.00;54.90
49413;DHT22;35493;50.276;9.372;2022-07-29T04:21:27;20.00;55.00
49413;DHT22;35493;50.276;9.372;2022-07-29T04:23:54;20.10;54.50
49413;DHT22;35493;50.276;9.372;2022-07-29T04:26:21;20.10;54.40
49413;DHT22;35493;50.276;9.372;2022-07-29T04:28:48;20.10;54.10
49413;DHT22;35493;50.276;9.372;2022-07-29T04:31:16;20.10;54.20
49413;DHT22;35493;50.276;9.372;2022-07-29T04:33:43;20.10;54.20
49413;DHT22;35493;50.276;9.372;2022-07-29T04:36:10;20.00;54.20
49413;DHT22;35493;50.276;9.372;2022-07-29T04:38:38;20.10;54.20
49413;DHT22;35493;50.276;9.372;2022-07-29T04:41:05;20.00;54.40
49413;DHT22;35493;50.276;9.372;2022-07-29T04:43:34;20.00;54.40
49413;DHT22;35493;50.276;9.372;2022-07-29T04:46:01;20.00;54.60
49413;DHT22;35493;50.276;9.372;2022-07-29T04:48:29;20.10;54.70
49413;DHT22;35493;50.276;9.372;2022-07-29T04:50:56;20.00;54.80
49413;DHT22;35493;50.276;9.372;2022-07-29T04:53:23;20.10;55.10
49413;DHT22;35493;50.276;9.372;2022-07-29T04:55:50;20.10;55.00
49413;DHT22;35493;50.276;9.372;2022-07-29T04:58:17;20.10;54.60
49413;DHT22;35493;50.276;9.372;2022-07-29T05:00:44;20.10;54.40
49413;DHT22;35493;50.276;9.372;2022-07-29T05:03:11;20.20;54.00
49413;DHT22;35493;50.276;9.372;2022-07-29T05:05:39;20.30;53.70
49413;DHT22;35493;50.276;9.372;2022-07-29T05:08:07;20.30;53.10
49413;DHT22;35493;50.276;9.372;2022-07-29T05:10:35;20.30;53.00
49413;DHT22;35493;50.276;9.372;2022-07-29T05:13:04;20.40;52.90
49413;DHT22;35493;50.276;9.372;2022-07-29T05:15:32;20.40;52.70
49413;DHT22;35493;50.276;9.372;2022-07-29T05:17:59;20.50;52.70
49413;DHT22;35493;50.276;9.372;2022-07-29T05:20:26;20.40;53.10
49413;DHT22;35493;50.276;9.372;2022-07-29T05:22:55;20.40;53.40
49413;DHT22;35493;50.276;9.372;2022-07-29T05:25:23;20.50;53.70
49413;DHT22;35493;50.276;9.372;2022-07-29T05:27:50;20.50;53.60
49413;DHT22;35493;50.276;9.372;2022-07-29T05:30:17;20.50;53.90
49413;DHT22;35493;50.276;9.372;2022-07-29T05:32:44;20.50;53.30
49413;DHT22;35493;50.276;9.372;2022-07-29T05:35:13;20.40;53.20
49413;DHT22;35493;50.276;9.372;2022-07-29T05:37:40;20.50;53.20
49413;DHT22;35493;50.276;9.372;2022-07-29T05:40:09;20.40;53.20
49413;DHT22;35493;50.276;9.372;2022-07-29T05:42:36;20.40;53.70
49413;DHT22;35493;50.276;9.372;2022-07-29T05:45:03;20.40;53.90
49413;DHT22;35493;50.276;9.372;2022-07-29T05:47:30;20.50;53.80
49413;DHT22;35493;50.276;9.372;2022-07-29T05:49:57;20.50;53.90
49413;DHT22;35493;50.276;9.372;2022-07-29T05:52:24;20.50;53.90
49413;DHT22;35493;50.276;9.372;2022-07-29T05:54:51;20.50;54.50
49413;DHT22;35493;50.276;9.372;2022-07-29T05:57:22;20.50;54.50
49413;DHT22;35493;50.276;9.372;2022-07-29T05:59:50;20.40;54.20
49413;DHT22;35493;50.276;9.372;2022-07-29T06:02:17;20.40;54.00
49413;DHT22;35493;50.276;9.372;2022-07-29T06:04:44;20.40;53.80
49413;DHT22;35493;50.276;9.372;2022-07-29T06:07:11;20.40;53.60
49413;DHT22;35493;50.276;9.372;2022-07-29T06:09:38;20.40;53.30
49413;DHT22;35493;50.276;9.372;2022-07-29T06:12:05;20.50;52.80
49413;DHT22;35493;50.276;9.372;2022-07-29T06:14:33;20.50;52.50
49413;DHT22;35493;50.276;9.372;2022-07-29T06:17:01;20.50;52.70
49413;DHT22;35493;50.276;9.372;2022-07-29T06:19:28;20.50;52.60
49413;DHT22;35493;50.276;9.372;2022-07-29T06:21:55;20.60;52.80
49413;DHT22;35493;50.276;9.372;2022-07-29T06:24:22;20.60;53.20
49413;DHT22;35493;50.276;9.372;2022-07-29T06:26:49;20.70;53.10
49413;DHT22;35493;50.276;9.372;2022-07-29T06:29:15;20.90;53.00
49413;DHT22;35493;50.276;9.372;2022-07-29T06:31:44;21.00;53.00
49413;DHT22;35493;50.276;9.372;2022-07-29T06:34:11;21.00;52.90
49413;DHT22;35493;50.276;9.372;2022-07-29T06:36:38;21.10;52.90
49413;DHT22;35493;50.276;9.372;2022-07-29T06:39:05;21.00;52.50
49413;DHT22;35493;50.276;9.372;2022-07-29T06:41:33;21.10;52.60
49413;DHT22;35493;50.276;9.372;2022-07-29T06:44:08;21.10;52.60
49413;DHT22;35493;50.276;9.372;2022-07-29T06:46:35;21.10;52.40
49413;DHT22;35493;50.276;9.372;2022-07-29T06:49:03;21.20;52.20
49413;DHT22;35493;50.276;9.372;2022-07-29T06:51:30;21.20;51.90
49413;DHT22;35493;50.276;9.372;2022-07-29T06:53:57;21.30;52.00
49413;DHT22;35493;50.276;9.372;2022-07-29T06:56:25;21.30;51.90
49413;DHT22;35493;50.276;9.372;2022-07-29T06:58:52;21.30;51.90
49413;DHT22;35493;50.276;9.372;2022-07-29T07:01:19;21.40;51.70
49413;DHT22;35493;50.276;9.372;2022-07-29T07:03:46;21.40;50.90
49413;DHT22;35493;50.276;9.372;2022-07-29T07:06:14;21.40;51.00
49413;DHT22;35493;50.276;9.372;2022-07-29T07:08:41;21.40;50.90
49413;DHT22;35493;50.276;9.372;2022-07-29T07:11:09;21.40;50.80
49413;DHT22;35493;50.276;9.372;2022-07-29T07:13:36;21.40;50.60
49413;DHT22;35493;50.276;9.372;2022-07-29T07:16:03;21.50;50.40
49413;DHT22;35493;50.276;9.372;2022-07-29T07:18:31;21.50;50.10
49413;DHT22;35493;50.276;9.372;2022-07-29T07:20:58;21.50;50.20
49413;DHT22;35493;50.276;9.372;2022-07-29T07:23:26;21.60;50.10
49413;DHT22;35493;50.276;9.372;2022-07-29T07:25:53;21.60;49.90
49413;DHT22;35493;50.276;9.372;2022-07-29T07:28:20;21.80;49.60
49413;DHT22;35493;50.276;9.372;2022-07-29T07:30:47;22.00;49.70
49413;DHT22;35493;50.276;9.372;2022-07-29T07:33:14;22.10;49.80
49413;DHT22;35493;50.276;9.372;2022-07-29T07:35:42;22.10;49.70
49413;DHT22;35493;50.276;9.372;2022-07-29T07:38:09;22.20;49.60
49413;DHT22;35493;50.276;9.372;2022-07-29T07:40:38;22.30;49.60
49413;DHT22;35493;50.276;9.372;2022-07-29T07:43:05;22.30;49.60
49413;DHT22;35493;50.276;9.372;2022-07-29T07:45:32;22.30;49.50
49413;DHT22;35493;50.276;9.372;2022-07-29T07:47:59;22.30;49.40
49413;DHT22;35493;50.276;9.372;2022-07-29T07:50:26;22.30;49.50
49413;DHT22;35493;50.276;9.372;2022-07-29T07:52:55;22.30;49.30
49413;DHT22;35493;50.276;9.372;2022-07-29T07:55:23;22.50;49.20
49413;DHT22;35493;50.276;9.372;2022-07-29T07:57:52;22.60;49.10
49413;DHT22;35493;50.276;9.372;2022-07-29T08:00:20;22.70;49.20
49413;DHT22;35493;50.276;9.372;2022-07-29T08:02:47;22.90;49.00
49413;DHT22;35493;50.276;9.372;2022-07-29T08:05:15;23.00;48.50
49413;DHT22;35493;50.276;9.372;2022-07-29T08:07:44;23.10;48.10
49413;DHT22;35493;50.276;9.372;2022-07-29T08:10:11;23.30;48.10
49413;DHT22;35493;50.276;9.372;2022-07-29T08:12:38;23.30;47.80
49413;DHT22;35493;50.276;9.372;2022-07-29T08:15:08;23.50;47.80
49413;DHT22;35493;50.276;9.372;2022-07-29T08:17:35;23.50;47.80
49413;DHT22;35493;50.276;9.372;2022-07-29T08:20:03;23.60;47.90
49413;DHT22;35493;50.276;9.372;2022-07-29T08:22:30;23.80;47.60
49413;DHT22;35493;50.276;9.372;2022-07-29T08:24:57;24.00;47.50
49413;DHT22;35493;50.276;9.372;2022-07-29T08:27:24;24.20;47.20
49413;DHT22;35493;50.276;9.372;2022-07-29T08:29:52;24.40;47.40
49413;DHT22;35493;50.276;9.372;2022-07-29T08:32:20;24.60;47.20
49413;DHT22;35493;50.276;9.372;2022-07-29T08:34:47;24.60;47.20
49413;DHT22;35493;50.276;9.372;2022-07-29T08:37:13;24.80;47.30
49413;DHT22;35493;50.276;9.372;2022-07-29T08:39:41;25.00;47.40
49413;DHT22;35493;50.276;9.372;2022-07-29T08:42:08;25.10;47.60
49413;DHT22;35493;50.276;9.372;2022-07-29T08:44:35;25.10;47.50
49413;DHT22;35493;50.276;9.372;2022-07-29T08:47:03;25.10;47.60
49413;DHT22;35493;50.276;9.372;2022-07-29T08:49:33;25.20;47.80
49413;DHT22;35493;50.276;9.372;2022-07-29T08:52:00;25.20;47.60
49413;DHT22;35493;50.276;9.372;2022-07-29T08:54:27;25.20;47.80
49413;DHT22;35493;50.276;9.372;2022-07-29T08:56:56;25.20;48.00
49413;DHT22;35493;50.276;9.372;2022-07-29T08:59:25;25.30;48.00
49413;DHT22;35493;50.276;9.372;2022-07-29T09:01:54;25.40;47.70
49413;DHT22;35493;50.276;9.372;2022-07-29T09:04:22;25.50;47.80
49413;DHT22;35493;50.276;9.372;2022-07-29T09:06:54;25.60;47.30
49413;DHT22;35493;50.276;9.372;2022-07-29T09:09:21;25.70;47.40
49413;DHT22;35493;50.276;9.372;2022-07-29T09:11:49;25.80;47.40
49413;DHT22;35493;50.276;9.372;2022-07-29T09:14:16;25.90;47.20
49413;DHT22;35493;50.276;9.372;2022-07-29T09:16:51;26.00;47.10
49413;DHT22;35493;50.276;9.372;2022-07-29T09:19:24;26.10;47.10
49413;DHT22;35493;50.276;9.372;2022-07-29T09:21:53;26.10;47.50
49413;DHT22;35493;50.276;9.372;2022-07-29T09:24:28;26.00;47.70
49413;DHT22;35493;50.276;9.372;2022-07-29T09:27:02;26.10;47.80
49413;DHT22;35493;50.276;9.372;2022-07-29T09:29:29;26.30;48.00
49413;DHT22;35493;50.276;9.372;2022-07-29T09:31:57;26.40;47.90
49413;DHT22;35493;50.276;9.372;2022-07-29T09:34:25;26.60;47.80
49413;DHT22;35493;50.276;9.372;2022-07-29T09:36:55;26.60;47.80
49413;DHT22;35493;50.276;9.372;2022-07-29T09:39:29;26.70;47.40
49413;DHT22;35493;50.276;9.372;2022-07-29T09:41:58;26.80;47.40
49413;DHT22;35493;50.276;9.372;2022-07-29T09:44:26;26.90;47.10
49413;DHT22;35493;50.276;9.372;2022-07-29T09:46:57;27.00;47.00
49413;DHT22;35493;50.276;9.372;2022-07-29T09:49:24;27.20;46.70
49413;DHT22;35493;50.276;9.372;2022-07-29T09:52:06;27.20;46.70
49413;DHT22;35493;50.276;9.372;2022-07-29T09:54:33;27.20;46.60
49413;DHT22;35493;50.276;9.372;2022-07-29T09:57:04;27.30;46.60
49413;DHT22;35493;50.276;9.372;2022-07-29T09:59:32;27.40;46.70
49413;DHT22;35493;50.276;9.372;2022-07-29T10:01:59;27.60;46.60
49413;DHT22;35493;50.276;9.372;2022-07-29T10:04:39;27.60;46.60
49413;DHT22;35493;50.276;9.372;2022-07-29T10:07:08;27.60;46.50
49413;DHT22;35493;50.276;9.372;2022-07-29T10:09:35;27.60;45.80
49413;DHT22;35493;50.276;9.372;2022-07-29T10:12:04;27.60;45.40
49413;DHT22;35493;50.276;9.372;2022-07-29T10:14:32;27.80;44.20
49413;DHT22;35493;50.276;9.372;2022-07-29T10:17:00;27.90;43.80
49413;DHT22;35493;50.276;9.372;2022-07-29T10:19:28;27.80;43.50
49413;DHT22;35493;50.276;9.372;2022-07-29T10:21:56;27.90;43.20
49413;DHT22;35493;50.276;9.372;2022-07-29T10:24:26;28.00;42.70
49413;DHT22;35493;50.276;9.372;2022-07-29T10:26:54;28.10;42.60
49413;DHT22;35493;50.276;9.372;2022-07-29T10:29:22;28.20;42.50
49413;DHT22;35493;50.276;9.372;2022-07-29T10:31:57;28.40;42.10
49413;DHT22;35493;50.276;9.372;2022-07-29T10:34:36;28.50;41.90
49413;DHT22;35493;50.276;9.372;2022-07-29T10:37:07;28.60;41.90
49413;DHT22;35493;50.276;9.372;2022-07-29T10:39:53;28.60;41.90
49413;DHT22;35493;50.276;9.372;2022-07-29T10:42:23;28.50;41.70
49413;DHT22;35493;50.276;9.372;2022-07-29T10:44:51;28.50;41.70
49413;DHT22;35493;50.276;9.372;2022-07-29T10:47:21;28.50;41.80
49413;DHT22;35493;50.276;9.372;2022-07-29T10:49:59;28.50;41.80
49413;DHT22;35493;50.276;9.372;2022-07-29T10:52:52;28.50;42.00
49413;DHT22;35493;50.276;9.372;2022-07-29T10:55:34;28.50;42.10
49413;DHT22;35493;50.276;9.372;2022-07-29T10:58:16;28.60;42.10
49413;DHT22;35493;50.276;9.372;2022-07-29T11:00:45;28.70;42.10
49413;DHT22;35493;50.276;9.372;2022-07-29T11:05:58;28.90;41.90
49413;DHT22;35493;50.276;9.372;2022-07-29T11:08:25;28.80;41.70
49413;DHT22;35493;50.276;9.372;2022-07-29T11:11:30;28.80;41.50
49413;DHT22;35493;50.276;9.372;2022-07-29T11:13:57;28.80;41.40
49413;DHT22;35493;50.276;9.372;2022-07-29T11:16:24;28.90;41.40
49413;DHT22;35493;50.276;9.372;2022-07-29T11:19:19;29.00;41.40
49413;DHT22;35493;50.276;9.372;2022-07-29T11:21:47;29.20;41.20
49413;DHT22;35493;50.276;9.372;2022-07-29T11:24:18;29.20;41.20
49413;DHT22;35493;50.276;9.372;2022-07-29T11:27:09;29.30;41.10
49413;DHT22;35493;50.276;9.372;2022-07-29T11:29:39;29.30;41.00
49413;DHT22;35493;50.276;9.372;2022-07-29T11:32:11;29.30;40.80
49413;DHT22;35493;50.276;9.372;2022-07-29T11:34:40;29.20;40.60
49413;DHT22;35493;50.276;9.372;2022-07-29T11:37:24;29.20;40.30
49413;DHT22;35493;50.276;9.372;2022-07-29T11:40:11;29.20;40.50
49413;DHT22;35493;50.276;9.372;2022-07-29T11:42:49;29.30;40.30
49413;DHT22;35493;50.276;9.372;2022-07-29T11:45:25;29.40;40.30
49413;DHT22;35493;50.276;9.372;2022-07-29T11:47:58;29.40;40.10
49413;DHT22;35493;50.276;9.372;2022-07-29T11:50:33;29.40;39.80
49413;DHT22;35493;50.276;9.372;2022-07-29T11:53:02;29.40;39.90
49413;DHT22;35493;50.276;9.372;2022-07-29T11:55:29;29.20;39.90
49413;DHT22;35493;50.276;9.372;2022-07-29T11:58:02;29.30;39.90
49413;DHT22;35493;50.276;9.372;2022-07-29T12:00:31;29.30;39.90
49413;DHT22;35493;50.276;9.372;2022-07-29T12:02:59;29.40;39.90
49413;DHT22;35493;50.276;9.372;2022-07-29T12:05:35;29.50;39.80
49413;DHT22;35493;50.276;9.372;2022-07-29T12:08:07;29.50;39.70
49413;DHT22;35493;50.276;9.372;2022-07-29T12:10:34;29.50;39.60
49413;DHT22;35493;50.276;9.372;2022-07-29T12:13:03;29.50;39.40
49413;DHT22;35493;50.276;9.372;2022-07-29T12:15:30;29.60;39.00
49413;DHT22;35493;50.276;9.372;2022-07-29T12:17:58;29.60;38.90
49413;DHT22;35493;50.276;9.372;2022-07-29T12:20:26;29.70;39.10
49413;DHT22;35493;50.276;9.372;2022-07-29T12:22:54;29.60;38.80
49413;DHT22;35493;50.276;9.372;2022-07-29T12:25:23;29.60;38.90
49413;DHT22;35493;50.276;9.372;2022-07-29T12:27:59;29.60;38.90
49413;DHT22;35493;50.276;9.372;2022-07-29T12:30:37;29.60;38.70
49413;DHT22;35493;50.276;9.372;2022-07-29T12:33:16;29.60;38.80
49413;DHT22;35493;50.276;9.372;2022-07-29T12:35:46;29.50;38.90
49413;DHT22;35493;50.276;9.372;2022-07-29T12:38:14;29.40;38.80
49413;DHT22;35493;50.276;9.372;2022-07-29T12:40:42;29.30;39.00
49413;DHT22;35493;50.276;9.372;2022-07-29T12:43:12;29.30;39.00
49413;DHT22;35493;50.276;9.372;2022-07-29T12:45:43;29.30;39.10
49413;DHT22;35493;50.276;9.372;2022-07-29T12:48:10;29.30;39.30
49413;DHT22;35493;50.276;9.372;2022-07-29T12:50:52;29.40;39.20
49413;DHT22;35493;50.276;9.372;2022-07-29T12:53:20;29.50;39.20
49413;DHT22;35493;50.276;9.372;2022-07-29T12:55:48;29.50;39.10
49413;DHT22;35493;50.276;9.372;2022-07-29T12:58:27;29.40;39.20
49413;DHT22;35493;50.276;9.372;2022-07-29T13:01:08;29.40;39.20
49413;DHT22;35493;50.276;9.372;2022-07-29T13:03:46;29.40;39.00
49413;DHT22;35493;50.276;9.372;2022-07-29T13:06:34;29.50;38.90
49413;DHT22;35493;50.276;9.372;2022-07-29T13:09:08;29.50;38.90
49413;DHT22;35493;50.276;9.372;2022-07-29T13:11:38;29.50;39.00
49413;DHT22;35493;50.276;9.372;2022-07-29T13:14:07;29.50;39.00
49413;DHT22;35493;50.276;9.372;2022-07-29T13:17:01;29.50;38.80
49413;DHT22;35493;50.276;9.372;2022-07-29T13:19:34;29.50;38.90
49413;DHT22;35493;50.276;9.372;2022-07-29T13:22:01;29.50;39.00
49413;DHT22;35493;50.276;9.372;2022-07-29T13:24:28;29.50;38.90
49413;DHT22;35493;50.276;9.372;2022-07-29T13:26:55;29.60;38.80
49413;DHT22;35493;50.276;9.372;2022-07-29T13:29:22;29.70;38.40
49413;DHT22;35493;50.276;9.372;2022-07-29T13:31:49;29.70;38.30
49413;DHT22;35493;50.276;9.372;2022-07-29T13:34:16;29.70;38.50
49413;DHT22;35493;50.276;9.372;2022-07-29T13:36:46;29.70;38.70
49413;DHT22;35493;50.276;9.372;2022-07-29T13:39:13;29.70;38.70
49413;DHT22;35493;50.276;9.372;2022-07-29T13:41:40;29.60;38.70
49413;DHT22;35493;50.276;9.372;2022-07-29T13:44:07;29.60;38.50
49413;DHT22;35493;50.276;9.372;2022-07-29T13:46:34;29.60;38.60
49413;DHT22;35493;50.276;9.372;2022-07-29T13:49:01;29.60;38.80
49413;DHT22;35493;50.276;9.372;2022-07-29T13:51:28;29.50;39.20
49413;DHT22;35493;50.276;9.372;2022-07-29T13:53:56;29.50;39.10
49413;DHT22;35493;50.276;9.372;2022-07-29T13:56:23;29.40;39.10
49413;DHT22;35493;50.276;9.372;2022-07-29T13:58:50;29.40;39.00
49413;DHT22;35493;50.276;9.372;2022-07-29T14:01:17;29.50;40.00
49413;DHT22;35493;50.276;9.372;2022-07-29T14:03:44;29.40;39.70
49413;DHT22;35493;50.276;9.372;2022-07-29T14:06:11;29.40;39.50
49413;DHT22;35493;50.276;9.372;2022-07-29T14:08:38;29.50;39.50
49413;DHT22;35493;50.276;9.372;2022-07-29T14:11:07;29.50;39.20
49413;DHT22;35493;50.276;9.372;2022-07-29T14:13:34;29.60;38.70
49413;DHT22;35493;50.276;9.372;2022-07-29T14:16:01;29.70;38.60
49413;DHT22;35493;50.276;9.372;2022-07-29T14:18:27;29.80;38.80
49413;DHT22;35493;50.276;9.372;2022-07-29T14:20:54;29.90;38.30
49413;DHT22;35493;50.276;9.372;2022-07-29T14:23:21;30.00;38.60
49413;DHT22;35493;50.276;9.372;2022-07-29T14:25:48;29.90;39.10
49413;DHT22;35493;50.276;9.372;2022-07-29T14:28:16;29.90;38.60
49413;DHT22;35493;50.276;9.372;2022-07-29T14:30:43;29.90;38.50
49413;DHT22;35493;50.276;9.372;2022-07-29T14:33:11;29.80;38.60
49413;DHT22;35493;50.276;9.372;2022-07-29T14:35:39;29.80;38.60
49413;DHT22;35493;50.276;9.372;2022-07-29T14:38:05;29.80;38.60
49413;DHT22;35493;50.276;9.372;2022-07-29T14:40:32;29.80;38.80
49413;DHT22;35493;50.276;9.372;2022-07-29T14:42:59;29.70;39.40
49413;DHT22;35493;50.276;9.372;2022-07-29T14:45:28;29.70;39.80
49413;DHT22;35493;50.276;9.372;2022-07-29T14:47:55;29.70;38.30
49413;DHT22;35493;50.276;9.372;2022-07-29T14:50:22;29.70;39.40
49413;DHT22;35493;50.276;9.372;2022-07-29T14:52:49;29.60;39.70
49413;DHT22;35493;50.276;9.372;2022-07-29T14:55:16;29.60;38.80
49413;DHT22;35493;50.276;9.372;2022-07-29T14:57:43;29.60;40.00
49413;DHT22;35493;50.276;9.372;2022-07-29T15:00:10;29.50;40.10
49413;DHT22;35493;50.276;9.372;2022-07-29T15:02:39;29.40;40.10
49413;DHT22;35493;50.276;9.372;2022-07-29T15:05:06;29.40;40.20
49413;DHT22;35493;50.276;9.372;2022-07-29T15:07:33;29.30;39.80
49413;DHT22;35493;50.276;9.372;2022-07-29T15:10:00;29.30;39.70
49413;DHT22;35493;50.276;9.372;2022-07-29T15:12:28;29.20;39.70
49413;DHT22;35493;50.276;9.372;2022-07-29T15:14:55;29.10;40.30
49413;DHT22;35493;50.276;9.372;2022-07-29T15:17:22;29.00;41.40
49413;DHT22;35493;50.276;9.372;2022-07-29T15:19:50;28.70;42.80
49413;DHT22;35493;50.276;9.372;2022-07-29T15:22:17;28.50;43.90
49413;DHT22;35493;50.276;9.372;2022-07-29T15:24:44;28.40;45.10
49413;DHT22;35493;50.276;9.372;2022-07-29T15:27:11;28.20;47.20
49413;DHT22;35493;50.276;9.372;2022-07-29T15:29:39;28.00;49.00
49413;DHT22;35493;50.276;9.372;2022-07-29T15:32:07;28.00;48.60
49413;DHT22;35493;50.276;9.372;2022-07-29T15:34:34;27.90;49.90
49413;DHT22;35493;50.276;9.372;2022-07-29T15:37:03;27.80;51.60
49413;DHT22;35493;50.276;9.372;2022-07-29T15:39:30;27.70;52.70
49413;DHT22;35493;50.276;9.372;2022-07-29T15:41:57;27.70;53.80
49413;DHT22;35493;50.276;9.372;2022-07-29T15:44:25;27.70;54.20
49413;DHT22;35493;50.276;9.372;2022-07-29T15:46:52;27.30;56.40
49413;DHT22;35493;50.276;9.372;2022-07-29T15:49:32;27.10;58.00